Time;durP1;ratioP1;P1;durP2;ratioP2;P2;SDS_P1;SDS_P2;PMS_P1;PMS_P2;Temp;Humidity;BMP_temperature;BMP_pressure;BME280_temperature;BME280_humidity;BME280_pressure;Samples;Min_cycle;Max_cycle;Signal;HPM_P1;HPM_P2
2021/09/07 00:00:35;;;;;;;27.40;18.80;;;;;;;15.83;100.00;98487.34;5051451;28;20021;-82
2021/09/07 00:03:02;;;;;;;33.30;19.45;;;;;;;15.79;100.00;98486.41;5037816;28;20326;-82
2021/09/07 00:05:29;;;;;;;31.17;19.02;;;;;;;15.60;100.00;98485.97;5002471;28;20064;-83
2021/09/07 00:07:55;;;;;;;28.02;17.58;;;;;;;15.78;100.00;98503.09;5053657;28;20045;-83
2021/09/07 00:10:22;;;;;;;28.85;17.73;;;;;;;15.75;100.00;98507.28;5036582;28;20048;-82
2021/09/07 00:12:49;;;;;;;28.33;17.45;;;;;;;15.81;100.00;98500.53;5034373;28;20041;-82
2021/09/07 00:15:17;;;;;;;25.23;16.38;;;;;;;15.82;100.00;98491.19;5036761;28;20451;-81
2021/09/07 00:17:44;;;;;;;25.77;17.08;;;;;;;15.77;100.00;98488.63;5020576;28;20408;-82
2021/09/07 00:20:12;;;;;;;26.98;17.25;;;;;;;15.70;100.00;98490.28;5036025;28;20135;-82
2021/09/07 00:22:38;;;;;;;24.70;17.00;;;;;;;15.63;100.00;98493.53;5019223;28;20420;-84
2021/09/07 00:25:06;;;;;;;27.58;16.77;;;;;;;15.70;100.00;98491.09;5035370;28;20599;-81
2021/09/07 00:27:34;;;;;;;26.08;16.73;;;;;;;15.70;100.00;98493.00;5053196;28;20440;-81
2021/09/07 00:30:02;;;;;;;28.88;16.83;;;;;;;15.68;100.00;98498.00;5034557;28;20076;-82
2021/09/07 00:32:29;;;;;;;33.70;19.10;;;;;;;15.74;100.00;98505.69;5035154;28;20041;-83
2021/09/07 00:34:55;;;;;;;31.02;19.92;;;;;;;15.67;100.00;98497.19;5035163;28;20052;-83
2021/09/07 00:37:22;;;;;;;32.38;20.83;;;;;;;15.90;100.00;98512.19;5048201;28;20087;-84
2021/09/07 00:39:49;;;;;;;34.58;21.90;;;;;;;16.07;100.00;98506.66;5047762;28;20052;-83
2021/09/07 00:42:16;;;;;;;37.00;22.77;;;;;;;16.18;100.00;98486.03;5022655;28;20049;-84
2021/09/07 00:44:43;;;;;;;36.35;22.55;;;;;;;16.41;100.00;98493.94;5035610;28;20140;-82
2021/09/07 00:47:10;;;;;;;38.35;22.65;;;;;;;16.53;100.00;98503.03;5054030;28;20041;-81
2021/09/07 00:49:37;;;;;;;35.95;22.75;;;;;;;16.61;100.00;98495.91;5037090;28;20072;-82
2021/09/07 00:52:05;;;;;;;39.60;21.92;;;;;;;16.65;100.00;98505.84;5054136;28;20512;-83
2021/09/07 00:54:38;;;;;;;35.70;21.08;;;;;;;16.55;100.00;98491.75;5071903;28;20036;-82
2021/09/07 00:57:08;;;;;;;36.20;22.13;;;;;;;16.67;100.00;98503.56;5039670;28;20044;-82
2021/09/07 00:59:36;;;;;;;37.10;21.38;;;;;;;16.66;100.00;98484.78;5038305;28;20051;-82
2021/09/07 01:02:04;;;;;;;39.42;21.60;;;;;;;16.60;100.00;98480.63;5037607;28;20095;-83
2021/09/07 01:04:34;;;;;;;39.80;22.05;;;;;;;16.47;100.00;98484.38;5040193;28;20049;-82
2021/09/07 01:07:03;;;;;;;37.17;22.05;;;;;;;16.54;100.00;98484.72;5065076;28;20056;-83
2021/09/07 01:09:30;;;;;;;33.03;20.55;;;;;;;16.50;100.00;98491.94;5058838;28;20140;-82
2021/09/07 01:11:56;;;;;;;38.25;22.35;;;;;;;16.31;100.00;98477.94;5039422;28;20056;-82
2021/09/07 01:14:31;;;;;;;37.88;23.45;;;;;;;16.36;100.00;98485.94;5059596;28;20439;-82
2021/09/07 01:16:58;;;;;;;37.35;23.20;;;;;;;16.38;100.00;98472.72;5039497;28;20128;-82
2021/09/07 01:19:26;;;;;;;39.97;25.10;;;;;;;16.41;100.00;98472.06;5022893;28;20056;-81
2021/09/07 01:21:53;;;;;;;37.22;23.92;;;;;;;16.30;100.00;98471.66;5056091;28;20056;-82
2021/09/07 01:24:26;;;;;;;42.38;24.15;;;;;;;16.39;100.00;98466.16;5056350;28;20041;-82
2021/09/07 01:26:54;;;;;;;42.85;26.75;;;;;;;16.35;100.00;98468.72;5021337;28;20131;-81
2021/09/07 01:29:22;;;;;;;42.10;24.55;;;;;;;16.33;100.00;98464.72;5038392;28;20428;-81
2021/09/07 01:31:52;;;;;;;44.92;25.92;;;;;;;16.35;100.00;98467.91;5021084;28;20048;-81
2021/09/07 01:34:22;;;;;;;42.00;25.60;;;;;;;16.17;100.00;98467.25;5020537;28;20041;-81
2021/09/07 01:36:49;;;;;;;45.17;25.40;;;;;;;16.19;100.00;98473.97;5053480;28;20134;-82
2021/09/07 01:39:16;;;;;;;44.75;26.05;;;;;;;16.08;100.00;98461.00;5045613;28;20044;-82
2021/09/07 01:41:43;;;;;;;42.33;24.33;;;;;;;16.09;100.00;98455.22;5054947;28;20073;-82
2021/09/07 01:44:10;;;;;;;43.58;24.20;;;;;;;16.13;100.00;98463.59;5055808;28;20045;-82
2021/09/07 01:46:37;;;;;;;37.88;23.77;;;;;;;16.01;100.00;98468.94;5071461;28;20037;-82
2021/09/07 01:49:05;;;;;;;45.13;24.73;;;;;;;15.95;100.00;98471.03;5057085;28;20048;-82
2021/09/07 01:51:33;;;;;;;37.22;23.13;;;;;;;16.01;100.00;98475.19;5055214;28;20493;-82
2021/09/07 01:54:00;;;;;;;42.45;24.33;;;;;;;15.98;100.00;98464.94;5036409;28;20049;-81
2021/09/07 01:56:32;;;;;;;40.15;22.92;;;;;;;15.97;100.00;98468.00;5054076;28;20052;-81
2021/09/07 01:59:00;;;;;;;43.00;24.10;;;;;;;15.81;100.00;98466.94;5053806;28;20045;-81
2021/09/07 02:01:26;;;;;;;43.47;25.08;;;;;;;15.60;100.00;98464.16;5019500;28;20413;-82
2021/09/07 02:03:53;;;;;;;40.28;23.05;;;;;;;15.76;100.00;98469.88;5035766;28;20451;-82
2021/09/07 02:06:20;;;;;;;43.90;26.08;;;;;;;15.64;100.00;98480.69;5055393;28;20048;-82
2021/09/07 02:08:47;;;;;;;46.60;26.05;;;;;;;15.59;100.00;98471.53;5044322;28;20056;-82
2021/09/07 02:11:13;;;;;;;44.33;25.50;;;;;;;15.50;100.00;98475.44;5026571;28;20060;-82
2021/09/07 02:13:40;;;;;;;41.35;26.45;;;;;;;15.48;100.00;98464.84;5042020;28;20041;-83
2021/09/07 02:16:07;;;;;;;45.88;26.85;;;;;;;15.63;100.00;98481.78;5052143;28;20039;-84
2021/09/07 02:18:34;;;;;;;46.47;26.92;;;;;;;15.66;100.00;98468.31;5044431;28;20041;-82
2021/09/07 02:21:00;;;;;;;43.25;24.88;;;;;;;15.76;100.00;98462.47;5042456;28;20112;-82
2021/09/07 02:23:27;;;;;;;42.92;25.27;;;;;;;15.82;100.00;98472.06;5042383;28;20033;-82
2021/09/07 02:25:54;;;;;;;49.72;27.33;;;;;;;15.49;100.00;98471.88;5060526;28;20075;-82
2021/09/07 02:28:20;;;;;;;48.90;27.65;;;;;;;15.59;100.00;98468.81;5041170;28;20048;-83
2021/09/07 02:30:47;;;;;;;45.10;26.23;;;;;;;15.70;100.00;98466.50;5042269;28;20068;-82
2021/09/07 02:33:14;;;;;;;43.25;26.25;;;;;;;15.87;100.00;98471.09;5042393;28;20052;-82
2021/09/07 02:35:41;;;;;;;46.63;26.42;;;;;;;15.70;100.00;98488.34;5032173;28;20049;-83
2021/09/07 02:38:08;;;;;;;45.72;26.90;;;;;;;15.81;100.00;98478.69;5047140;28;20037;-82
2021/09/07 02:40:34;;;;;;;48.72;27.58;;;;;;;15.80;100.00;98476.25;5041582;28;20445;-83
2021/09/07 02:43:01;;;;;;;39.72;24.73;;;;;;;15.90;100.00;98478.63;5039800;28;20128;-83
2021/09/07 02:45:30;;;;;;;44.47;26.10;;;;;;;15.80;100.00;98468.88;5042231;28;20047;-83
2021/09/07 02:47:57;;;;;;;49.60;27.08;;;;;;;15.79;100.00;98472.75;5040480;28;20083;-83
2021/09/07 02:50:26;;;;;;;59.97;31.67;;;;;;;15.71;100.00;98468.13;5041570;28;20053;-84
2021/09/07 02:52:53;;;;;;;56.25;30.10;;;;;;;15.83;100.00;98468.22;5025482;28;20060;-83
2021/09/07 02:55:27;;;;;;;69.15;35.60;;;;;;;15.98;100.00;98480.50;5024277;28;20288;-83
2021/09/07 02:58:05;;;;;;;76.10;38.35;;;;;;;16.00;100.00;98479.06;5040370;28;20045;-84
2021/09/07 03:00:32;;;;;;;67.75;36.28;;;;;;;16.10;100.00;98492.31;5040111;28;20104;-83
2021/09/07 03:03:03;;;;;;;72.50;37.25;;;;;;;16.10;100.00;98475.16;5024065;28;20052;-83
2021/09/07 03:05:30;;;;;;;70.25;36.63;;;;;;;16.23;100.00;98472.16;5042957;28;20041;-83
2021/09/07 03:07:57;;;;;;;70.55;35.40;;;;;;;16.29;100.00;98469.25;5025787;28;20204;-83
2021/09/07 03:10:28;;;;;;;73.20;38.72;;;;;;;16.25;100.00;98471.84;5040929;28;20047;-83
2021/09/07 03:12:58;;;;;;;68.97;38.75;;;;;;;16.26;100.00;98470.69;5043122;28;20211;-83
2021/09/07 03:15:29;;;;;;;71.88;39.33;;;;;;;16.13;100.00;98447.97;5032745;28;20049;-85
2021/09/07 03:17:57;;;;;;;67.53;38.63;;;;;;;16.23;100.00;98470.59;5033164;28;20097;-84
2021/09/07 03:20:31;;;;;;;71.28;37.92;;;;;;;16.19;100.00;98475.91;5039198;28;20516;-84
2021/09/07 03:22:58;;;;;;;73.82;40.80;;;;;;;16.19;100.00;98498.56;5020542;28;20048;-84
2021/09/07 03:25:30;;;;;;;78.50;39.58;;;;;;;16.22;100.00;98508.03;5037505;28;20064;-83
2021/09/07 03:27:57;;;;;;;71.30;39.22;;;;;;;16.34;100.00;98501.84;5029282;28;20028;-84
2021/09/07 03:30:24;;;;;;;71.35;38.28;;;;;;;16.30;100.00;98512.66;5042729;28;20052;-83
2021/09/07 03:32:51;;;;;;;70.47;38.70;;;;;;;16.19;100.00;98505.94;5020174;28;20053;-83
2021/09/07 03:35:18;;;;;;;74.40;38.22;;;;;;;16.23;100.00;98507.69;5035526;28;20041;-84
2021/09/07 03:37:45;;;;;;;74.90;40.20;;;;;;;16.20;100.00;98499.38;5013613;28;20055;-83
2021/09/07 03:40:13;;;;;;;78.00;40.50;;;;;;;16.29;100.00;98513.78;5016231;28;20223;-83
2021/09/07 03:42:40;;;;;;;80.90;39.85;;;;;;;16.31;100.00;98495.09;4998395;28;20136;-83
2021/09/07 03:45:11;;;;;;;70.25;38.92;;;;;;;16.30;100.00;98489.97;5019066;28;20281;-84
2021/09/07 03:47:47;;;;;;;68.50;37.03;;;;;;;16.37;100.00;98501.19;5016423;28;20045;-83
2021/09/07 03:50:15;;;;;;;69.65;37.08;;;;;;;16.30;100.00;98501.72;5019664;28;20053;-83
2021/09/07 03:52:42;;;;;;;70.00;37.40;;;;;;;16.30;100.00;98515.38;5020484;28;20045;-83
2021/09/07 03:55:09;;;;;;;69.78;39.22;;;;;;;16.16;100.00;98496.47;5016319;28;20136;-83
2021/09/07 03:57:36;;;;;;;74.18;38.35;;;;;;;16.19;100.00;98500.50;5020373;28;20072;-83
2021/09/07 04:00:04;;;;;;;67.68;38.17;;;;;;;16.24;100.00;98497.56;5036026;28;20192;-83
2021/09/07 04:02:31;;;;;;;70.82;37.17;;;;;;;16.32;100.00;98501.38;5035060;28;20048;-82
2021/09/07 04:04:58;;;;;;;71.47;36.05;;;;;;;16.33;100.00;98500.25;5020237;28;20111;-82
2021/09/07 04:07:24;;;;;;;70.07;36.88;;;;;;;16.36;100.00;98505.06;5038492;28;20055;-82
2021/09/07 04:09:51;;;;;;;66.53;36.42;;;;;;;16.38;100.00;98506.34;5035665;28;20519;-82
2021/09/07 04:12:17;;;;;;;66.90;36.10;;;;;;;16.38;100.00;98491.84;5035744;28;20049;-82
2021/09/07 04:14:49;;;;;;;64.20;35.97;;;;;;;16.26;100.00;98502.72;5041168;28;20536;-82
2021/09/07 04:17:16;;;;;;;67.32;35.45;;;;;;;16.23;100.00;98497.91;5033248;28;20071;-82
2021/09/07 04:19:43;;;;;;;66.70;36.53;;;;;;;16.16;100.00;98492.94;5031045;28;20045;-80
2021/09/07 04:22:12;;;;;;;60.88;34.13;;;;;;;16.14;100.00;98485.09;5033024;28;20045;-84
2021/09/07 04:24:38;;;;;;;68.57;34.72;;;;;;;15.99;100.00;98495.78;5015107;28;20046;-82
2021/09/07 04:27:05;;;;;;;64.13;35.25;;;;;;;15.74;100.00;98497.50;5015321;28;20057;-84
2021/09/07 04:29:32;;;;;;;66.95;36.00;;;;;;;15.87;100.00;98491.00;5015056;28;20049;-85
2021/09/07 04:31:58;;;;;;;66.25;35.22;;;;;;;16.18;100.00;98480.56;5014941;28;20045;-83
2021/09/07 04:34:25;;;;;;;62.92;35.70;;;;;;;15.69;100.00;98489.47;5032901;28;20042;-82
2021/09/07 04:36:56;;;;;;;66.00;35.97;;;;;;;15.72;100.00;98502.47;5051657;28;20069;-82
2021/09/07 04:39:22;;;;;;;63.03;34.63;;;;;;;15.81;100.00;98505.97;5032591;28;20037;-82
2021/09/07 04:41:49;;;;;;;63.70;34.38;;;;;;;15.69;100.00;98485.97;5031518;28;20049;-80
2021/09/07 04:44:19;;;;;;;71.90;35.58;;;;;;;15.54;100.00;98495.47;5071048;22;20049;-79
2021/09/07 04:46:46;;;;;;;73.00;35.42;;;;;;;15.46;100.00;98504.47;5066412;28;20036;-78
2021/09/07 04:49:13;;;;;;;64.20;35.10;;;;;;;15.39;100.00;98504.16;5067817;28;20059;-79
2021/09/07 04:51:39;;;;;;;74.18;37.55;;;;;;;15.27;100.00;98504.03;5068103;28;20396;-79
2021/09/07 04:54:06;;;;;;;72.35;36.38;;;;;;;15.39;100.00;98506.88;5050035;28;20143;-79
2021/09/07 04:56:32;;;;;;;75.20;37.55;;;;;;;15.35;100.00;98495.03;5066409;28;20144;-79
2021/09/07 04:58:59;;;;;;;74.13;38.25;;;;;;;15.32;100.00;98522.94;5059910;22;20513;-77
2021/09/07 05:01:26;;;;;;;72.75;38.30;;;;;;;15.43;100.00;98513.31;5037248;28;20064;-78
2021/09/07 05:03:53;;;;;;;73.25;37.35;;;;;;;15.26;100.00;98521.50;5052744;28;20041;-82
2021/09/07 05:06:25;;;;;;;81.53;37.92;;;;;;;15.45;100.00;98530.16;5033373;28;20140;-81
2021/09/07 05:08:54;;;;;;;67.68;35.55;;;;;;;15.46;100.00;98523.56;5046006;28;20071;-82
2021/09/07 05:11:23;;;;;;;68.68;35.58;;;;;;;15.53;100.00;98534.81;5048106;28;20046;-81
2021/09/07 05:14:45;;;;;;;;;;;;;;;;;;;;;
2021/09/07 05:18:00;;;;;;;67.03;35.70;;;;;;;15.53;100.00;98534.81;5031158;28;20042;-81
2021/09/07 05:21:20;;;;;;;72.55;34.42;;;;;;;15.71;100.00;98535.56;5018104;28;20069;-82
2021/09/07 05:25:28;;;;;;;;;;;;;;;;;;;;;
2021/09/07 05:28:48;;;;;;;67.32;35.47;;;;;;;15.82;100.00;98523.19;5032119;28;20050;-82
2021/09/07 05:32:28;;;;;;;;;;;;;;;;;;;;;
2021/09/07 05:35:38;;;;;;;62.35;32.42;;;;;;;15.92;100.00;98531.81;4973444;28;20054;-81
2021/09/07 05:38:58;;;;;;;62.45;34.35;;;;;;;16.18;100.00;98548.88;4975299;22;20029;-83
2021/09/07 05:41:24;;;;;;;60.75;33.83;;;;;;;16.29;100.00;98548.47;5041526;28;20051;-83
2021/09/07 05:43:51;;;;;;;58.45;32.65;;;;;;;16.44;100.00;98553.41;5059839;28;20037;-82
2021/09/07 05:46:17;;;;;;;59.55;32.05;;;;;;;16.41;100.00;98551.34;5058107;28;20040;-82
2021/09/07 05:48:46;;;;;;;57.95;32.15;;;;;;;16.35;100.00;98558.09;5046372;28;20512;-80
2021/09/07 05:51:13;;;;;;;56.83;31.45;;;;;;;16.62;100.00;98558.44;5055986;22;20104;-83
2021/09/07 05:53:40;;;;;;;54.47;31.27;;;;;;;16.75;100.00;98557.41;5042734;28;20056;-85
2021/09/07 05:56:08;;;;;;;53.85;30.27;;;;;;;16.95;100.00;98553.09;5057283;28;20045;-82
2021/09/07 05:58:39;;;;;;;62.70;32.30;;;;;;;17.05;100.00;98549.13;5057343;28;20045;-84
2021/09/07 06:01:09;;;;;;;61.58;33.53;;;;;;;17.14;100.00;98553.41;5056520;28;20053;-84
2021/09/07 06:03:36;;;;;;;60.42;32.65;;;;;;;17.34;100.00;98546.31;5054332;28;20048;-84
2021/09/07 06:06:03;;;;;;;62.92;33.78;;;;;;;17.37;100.00;98545.63;5055273;28;20041;-84
2021/09/07 06:08:30;;;;;;;60.78;33.22;;;;;;;17.42;100.00;98543.47;5056694;28;20481;-85
2021/09/07 06:10:56;;;;;;;55.08;31.60;;;;;;;17.67;100.00;98547.13;5056555;28;20051;-83
2021/09/07 06:13:23;;;;;;;53.92;31.98;;;;;;;17.78;100.00;98553.75;5055114;28;20052;-84
2021/09/07 06:15:50;;;;;;;59.75;32.75;;;;;;;17.90;100.00;98553.00;5057049;28;20508;-85
2021/09/07 06:18:17;;;;;;;51.92;31.88;;;;;;;18.01;100.00;98552.19;5037126;28;20055;-83
2021/09/07 06:20:44;;;;;;;58.72;30.98;;;;;;;18.25;100.00;98543.19;5054933;28;20040;-83
2021/09/07 06:23:11;;;;;;;50.10;30.75;;;;;;;18.32;100.00;98556.34;5038202;28;20041;-83
2021/09/07 06:25:37;;;;;;;54.47;29.45;;;;;;;18.39;100.00;98546.41;5055180;28;20055;-86
2021/09/07 06:28:04;;;;;;;46.90;27.33;;;;;;;18.51;100.00;98551.09;5053726;28;20107;-84
2021/09/07 06:30:30;;;;;;;51.38;29.27;;;;;;;18.47;100.00;98547.44;5054203;28;20044;-83
2021/09/07 06:32:57;;;;;;;45.47;27.30;;;;;;;18.80;100.00;98555.50;5038324;28;20064;-84
2021/09/07 06:35:24;;;;;;;52.97;28.80;;;;;;;19.03;100.00;98564.84;5039217;28;20044;-84
2021/09/07 06:37:50;;;;;;;49.15;26.92;;;;;;;18.84;100.00;98545.47;5038014;28;20067;-83
2021/09/07 06:40:17;;;;;;;50.40;27.52;;;;;;;19.05;100.00;98563.34;5056406;28;20056;-84
2021/09/07 06:42:43;;;;;;;45.42;26.00;;;;;;;19.31;100.00;98571.16;5038274;28;20051;-84
2021/09/07 06:45:10;;;;;;;46.10;27.15;;;;;;;19.47;100.00;98563.78;5037995;28;20037;-84
2021/09/07 06:47:38;;;;;;;45.85;25.98;;;;;;;19.67;100.00;98559.22;5054249;28;20055;-84
2021/09/07 06:50:05;;;;;;;47.05;25.77;;;;;;;19.67;100.00;98559.22;5037921;28;20041;-84
2021/09/07 06:52:32;;;;;;;48.42;24.33;;;;;;;19.83;100.00;98549.06;5036808;28;20503;-85
2021/09/07 06:54:59;;;;;;;43.33;23.95;;;;;;;19.81;100.00;98562.38;5056366;28;20408;-84
2021/09/07 06:57:26;;;;;;;36.20;22.35;;;;;;;20.02;100.00;98567.63;5039291;28;20072;-83
2021/09/07 06:59:54;;;;;;;44.17;22.45;;;;;;;20.05;100.00;98564.16;5037474;28;20049;-84
2021/09/07 07:02:21;;;;;;;38.33;21.65;;;;;;;20.34;100.00;98569.22;5054729;28;20045;-83
2021/09/07 07:04:48;;;;;;;37.70;21.27;;;;;;;20.33;100.00;98573.94;5038208;28;20075;-81
2021/09/07 07:07:15;;;;;;;32.30;19.70;;;;;;;20.42;100.00;98580.06;5034267;28;20471;-83
2021/09/07 07:09:41;;;;;;;37.75;19.00;;;;;;;20.64;100.00;98584.13;5051484;28;20044;-82
2021/09/07 07:12:08;;;;;;;36.53;19.67;;;;;;;20.87;100.00;98579.56;5050079;28;20052;-82
2021/09/07 07:14:34;;;;;;;33.33;20.63;;;;;;;20.73;100.00;98586.66;5051906;28;20083;-84
2021/09/07 07:17:01;;;;;;;34.97;20.48;;;;;;;20.40;100.00;98584.31;5051640;28;20049;-81
2021/09/07 07:19:27;;;;;;;26.63;16.63;;;;;;;20.67;100.00;98588.91;5052421;28;20045;-83
2021/09/07 07:21:54;;;;;;;29.63;16.70;;;;;;;20.67;100.00;98594.41;5053406;28;20044;-81
2021/09/07 07:24:20;;;;;;;28.83;16.50;;;;;;;20.83;100.00;98591.63;5050638;28;20552;-84
2021/09/07 07:27:01;;;;;;;29.90;17.17;;;;;;;20.72;100.00;98591.41;5050638;28;20057;-83
2021/09/07 07:29:30;;;;;;;35.83;18.90;;;;;;;20.53;100.00;98588.56;5053003;28;20045;-84
2021/09/07 07:31:57;;;;;;;33.72;18.95;;;;;;;20.66;100.00;98579.06;5052478;28;20041;-83
2021/09/07 07:34:24;;;;;;;35.33;20.38;;;;;;;20.52;100.00;98589.72;5035511;28;20083;-83
2021/09/07 07:36:54;;;;;;;36.78;21.42;;;;;;;20.38;100.00;98592.13;5036318;28;20040;-84
2021/09/07 07:39:21;;;;;;;43.35;21.50;;;;;;;20.43;100.00;98597.38;5035022;28;20041;-82
2021/09/07 07:41:48;;;;;;;38.53;20.50;;;;;;;20.55;100.00;98594.50;5053598;28;20063;-82
2021/09/07 07:44:15;;;;;;;35.97;19.80;;;;;;;20.43;100.00;98595.41;5054237;28;20044;-82
2021/09/07 07:46:41;;;;;;;34.38;19.85;;;;;;;20.60;100.00;98596.19;5019211;28;20049;-83
2021/09/07 07:49:08;;;;;;;36.63;19.98;;;;;;;20.61;100.00;98604.09;5035921;28;20049;-85
2021/09/07 07:51:35;;;;;;;35.03;19.45;;;;;;;20.62;100.00;98599.41;5037484;28;20041;-84
2021/09/07 07:54:02;;;;;;;28.27;16.67;;;;;;;20.74;100.00;98608.34;5055943;28;20045;-83
2021/09/07 07:56:37;;;;;;;30.95;18.20;;;;;;;20.83;100.00;98603.44;5055265;28;20496;-82
2021/09/07 07:59:04;;;;;;;38.17;20.25;;;;;;;20.69;100.00;98605.88;5035245;28;20049;-83
2021/09/07 08:01:30;;;;;;;31.08;19.13;;;;;;;20.80;100.00;98595.09;5054120;28;20049;-84
2021/09/07 08:03:58;;;;;;;35.50;20.42;;;;;;;20.61;100.00;98609.59;5053198;28;20460;-83
2021/09/07 08:06:25;;;;;;;33.05;19.50;;;;;;;20.74;100.00;98611.09;5035000;28;20493;-84
2021/09/07 08:08:51;;;;;;;36.33;19.00;;;;;;;21.05;100.00;98602.78;5053235;28;20041;-85
2021/09/07 08:11:18;;;;;;;30.27;18.42;;;;;;;20.69;100.00;98605.88;5036534;28;20526;-81
2021/09/07 08:13:45;;;;;;;26.25;17.40;;;;;;;20.72;100.00;98596.09;5054611;28;20531;-84
2021/09/07 08:16:12;;;;;;;32.33;18.13;;;;;;;20.84;100.00;98604.22;5055440;28;20041;-84
2021/09/07 08:18:38;;;;;;;30.15;18.60;;;;;;;20.78;100.00;98605.66;5050054;28;20558;-84
2021/09/07 08:21:05;;;;;;;31.73;17.65;;;;;;;20.65;100.00;98596.72;5034149;28;20056;-83
2021/09/07 08:23:32;;;;;;;35.13;18.98;;;;;;;20.89;100.00;98607.50;5051460;28;20044;-83
2021/09/07 08:25:58;;;;;;;36.83;19.48;;;;;;;20.79;100.00;98608.06;5052097;28;20045;-85
2021/09/07 08:28:25;;;;;;;33.03;18.52;;;;;;;20.84;100.00;98607.78;5035800;28;20055;-83
2021/09/07 08:30:51;;;;;;;35.15;18.73;;;;;;;21.22;100.00;98611.78;5061671;28;20029;-85
2021/09/07 08:33:20;;;;;;;37.17;19.90;;;;;;;21.57;100.00;98618.06;5072346;28;20036;-85
2021/09/07 08:35:47;;;;;;;32.22;17.77;;;;;;;21.75;100.00;98599.91;5066567;28;20048;-84
2021/09/07 08:38:14;;;;;;;33.58;18.58;;;;;;;21.79;100.00;98595.25;5071842;28;20306;-84
2021/09/07 08:40:41;;;;;;;39.28;18.30;;;;;;;21.76;100.00;98603.47;5070046;28;20079;-84
2021/09/07 08:43:08;;;;;;;34.90;18.27;;;;;;;22.16;100.00;98601.91;5069906;28;20131;-85
2021/09/07 08:45:35;;;;;;;30.85;18.85;;;;;;;22.10;100.00;98614.38;5047314;28;20037;-83
2021/09/07 08:48:02;;;;;;;30.02;18.30;;;;;;;22.62;100.00;98605.44;5062874;28;20420;-84
2021/09/07 08:50:29;;;;;;;30.33;17.50;;;;;;;22.70;100.00;98607.16;5060138;28;20044;-84
2021/09/07 08:52:58;;;;;;;28.02;16.85;;;;;;;22.68;100.00;98612.25;5042159;28;20300;-84
2021/09/07 08:55:26;;;;;;;30.25;17.52;;;;;;;22.98;100.00;98605.97;5035459;28;20504;-83
2021/09/07 08:57:53;;;;;;;31.45;18.33;;;;;;;23.01;100.00;98616.28;5032157;28;20045;-82
2021/09/07 09:00:30;;;;;;;33.40;18.05;;;;;;;23.19;100.00;98601.56;5032132;28;20053;-82
2021/09/07 09:03:07;;;;;;;35.47;19.70;;;;;;;23.00;100.00;98622.97;5051354;28;20107;-82
2021/09/07 09:05:34;;;;;;;32.05;18.60;;;;;;;22.67;100.00;98605.13;5033113;28;20497;-82
2021/09/07 09:08:00;;;;;;;31.52;18.20;;;;;;;23.01;100.00;98613.53;5017094;28;20053;-83
2021/09/07 09:10:28;;;;;;;24.45;16.00;;;;;;;23.89;100.00;98615.47;5051480;28;20055;-82
2021/09/07 09:13:10;;;;;;;28.98;16.77;;;;;;;23.74;100.00;98618.47;5051062;28;20044;-83
2021/09/07 09:15:38;;;;;;;29.23;15.57;;;;;;;24.13;100.00;98625.25;5056594;28;20041;-83
2021/09/07 09:18:10;;;;;;;26.60;16.25;;;;;;;24.00;100.00;98615.59;5040208;28;20052;-84
2021/09/07 09:20:38;;;;;;;26.08;16.17;;;;;;;24.10;100.00;98624.03;5059199;28;20056;-85
2021/09/07 09:23:06;;;;;;;26.65;16.02;;;;;;;23.78;100.00;98616.53;5059120;28;20427;-82
2021/09/07 09:25:39;;;;;;;28.10;16.63;;;;;;;23.14;100.00;98628.72;5057162;28;20041;-82
2021/09/07 09:28:20;;;;;;;28.60;16.67;;;;;;;23.56;100.00;98621.03;5042565;28;20101;-84
2021/09/07 09:30:53;;;;;;;28.20;16.13;;;;;;;23.72;100.00;98615.28;5059338;28;20037;-83
2021/09/07 09:33:23;;;;;;;27.02;16.70;;;;;;;23.61;100.00;98625.41;5043553;28;20052;-83
2021/09/07 09:35:51;;;;;;;31.45;16.02;;;;;;;23.49;100.00;98618.94;5059919;28;20045;-81
2021/09/07 09:38:20;;;;;;;25.60;16.42;;;;;;;23.52;100.00;98625.69;5041664;28;20052;-83
2021/09/07 09:40:55;;;;;;;29.73;15.98;;;;;;;23.97;100.00;98628.22;5058276;28;20045;-85
2021/09/07 09:43:32;;;;;;;27.83;15.70;;;;;;;23.62;100.00;98621.47;5042016;28;20052;-83
2021/09/07 09:46:35;;;;;;;31.20;17.90;;;;;;;22.52;100.00;98624.56;5059209;28;20276;-84
2021/09/07 09:49:14;;;;;;;28.15;17.02;;;;;;;22.94;100.00;98617.00;5057580;28;20067;-83
2021/09/07 09:51:42;;;;;;;30.17;17.35;;;;;;;23.00;100.00;98621.00;5040450;28;20049;-83
2021/09/07 09:54:21;;;;;;;31.63;17.65;;;;;;;23.26;100.00;98615.47;5055969;28;20041;-84
2021/09/07 09:56:49;;;;;;;28.33;17.05;;;;;;;23.05;100.00;98626.22;5057341;28;20051;-83
2021/09/07 09:59:18;;;;;;;26.70;16.60;;;;;;;23.01;100.00;98596.94;5038957;28;20045;-83
2021/09/07 10:01:44;;;;;;;29.48;16.58;;;;;;;22.64;100.00;98622.44;5021749;28;20049;-84
2021/09/07 10:04:14;;;;;;;26.83;15.70;;;;;;;22.88;100.00;98624.00;5057752;28;20071;-84
2021/09/07 10:06:42;;;;;;;22.00;14.27;;;;;;;23.06;100.00;98621.47;5062514;28;20554;-82
2021/09/07 10:09:09;;;;;;;27.30;15.50;;;;;;;22.59;100.00;98610.88;5056368;28;20403;-84
2021/09/07 10:11:36;;;;;;;27.30;15.35;;;;;;;23.00;100.00;98620.19;5057602;28;20053;-82
2021/09/07 10:14:07;;;;;;;30.30;16.38;;;;;;;22.57;100.00;98615.97;5038839;28;20059;-83
2021/09/07 10:16:42;;;;;;;25.90;15.95;;;;;;;23.21;100.00;98607.50;5056842;28;20436;-83
2021/09/07 10:19:25;;;;;;;23.45;15.27;;;;;;;23.44;100.00;98612.97;5038710;28;20040;-82
2021/09/07 10:24:53;;;;;;;27.20;15.90;;;;;;;23.81;100.00;98616.56;5058320;28;20048;-84
2021/09/07 10:27:21;;;;;;;22.88;14.15;;;;;;;24.16;100.00;98603.13;5058675;28;20256;-83
2021/09/07 10:29:47;;;;;;;22.02;13.88;;;;;;;23.76;100.00;98605.84;5040152;28;20479;-83
2021/09/07 10:32:28;;;;;;;24.73;13.27;;;;;;;24.02;99.42;98611.28;5058927;28;20071;-84
2021/09/07 10:35:10;;;;;;;21.65;12.38;;;;;;;23.89;100.00;98600.84;5039510;28;20412;-81
2021/09/07 10:38:08;;;;;;;24.23;14.57;;;;;;;24.21;88.12;98604.75;5058995;28;20394;-84
2021/09/07 10:40:44;;;;;;;23.10;12.98;;;;;;;25.01;77.54;98598.28;5034305;28;20060;-85
2021/09/07 10:43:11;;;;;;;21.70;13.10;;;;;;;25.73;74.01;98598.25;5058436;28;20049;-82
2021/09/07 10:45:39;;;;;;;22.45;13.70;;;;;;;25.00;72.09;98596.72;5034923;28;20052;-80
2021/09/07 10:48:28;;;;;;;22.85;14.25;;;;;;;25.00;79.88;98596.72;5033855;28;20489;-82
2021/09/07 10:51:03;;;;;;;20.85;13.40;;;;;;;23.25;100.00;98602.84;5050452;28;20537;-83
2021/09/07 10:53:30;;;;;;;21.48;13.10;;;;;;;24.08;89.69;98603.44;5052466;28;20417;-82
2021/09/07 10:56:23;;;;;;;26.17;13.35;;;;;;;24.09;85.62;98586.47;5052127;28;20032;-81
2021/09/07 10:58:50;;;;;;;20.70;14.18;;;;;;;23.15;100.00;98594.41;5050246;28;20180;-82
2021/09/07 11:01:30;;;;;;;22.13;12.77;;;;;;;24.11;100.00;98580.53;5051116;28;20037;-82
2021/09/07 11:04:36;;;;;;;24.30;13.02;;;;;;;23.66;96.98;98598.22;5054953;28;20045;-83
2021/09/07 11:07:34;;;;;;;24.10;12.98;;;;;;;24.64;83.94;98587.34;5039369;28;20071;-83
2021/09/07 11:10:01;;;;;;;28.15;13.75;;;;;;;23.71;91.29;98589.59;5055302;28;20197;-84
2021/09/07 11:12:32;;;;;;;23.77;12.50;;;;;;;24.52;78.78;98589.63;5053622;28;20415;-83
2021/09/07 11:15:08;;;;;;;23.48;11.82;;;;;;;25.51;78.39;98596.59;5056036;28;20041;-83
2021/09/07 11:17:47;;;;;;;23.08;12.30;;;;;;;26.63;59.43;98581.38;5061625;28;20064;-81
2021/09/07 11:20:13;;;;;;;20.55;12.57;;;;;;;26.51;53.65;98577.00;5058637;28;20052;-81
2021/09/07 11:22:40;;;;;;;16.52;11.55;;;;;;;27.86;54.46;98576.66;5054543;28;20048;-82
2021/09/07 11:25:10;;;;;;;15.73;11.75;;;;;;;26.22;60.40;98585.72;5058584;28;20086;-83
2021/09/07 11:27:53;;;;;;;17.63;11.20;;;;;;;27.94;51.56;98579.00;5051002;28;20045;-83
2021/09/07 11:30:27;;;;;;;18.15;10.55;;;;;;;28.92;47.94;98574.69;5051892;28;20045;-81
2021/09/07 11:32:58;;;;;;;16.35;11.52;;;;;;;29.38;43.79;98571.41;5052245;28;20045;-82